createdAt,value
2018-01-13T00:01:02.062Z,44.93
2018-01-13T00:03:29.719Z,52.20
2018-01-13T00:05:57.342Z,40.57
2018-01-13T00:08:24.932Z,32.37
2018-01-13T00:10:52.582Z,53.33
2018-01-13T00:13:20.172Z,47.80
2018-01-13T00:15:47.809Z,31.83
2018-01-13T00:18:15.424Z,45.53
2018-01-13T00:20:43.777Z,35.37
2018-01-13T00:23:12.172Z,46.60
2018-01-13T00:25:39.797Z,32.70
2018-01-13T00:28:07.401Z,37.87
2018-01-13T00:30:35.795Z,37.00
2018-01-13T00:33:03.388Z,32.03
2018-01-13T00:35:31.021Z,39.90
2018-01-13T00:37:58.727Z,45.23
2018-01-13T00:40:26.328Z,44.40
2018-01-13T00:42:54.721Z,40.43
2018-01-13T00:45:22.312Z,41.77
2018-01-13T00:47:49.936Z,36.97
2018-01-13T00:50:18.291Z,41.60
2018-01-13T00:52:45.924Z,29.03
2018-01-13T00:55:13.568Z,34.10
2018-01-13T01:00:15.453Z,34.70
2018-01-13T01:02:43.113Z,38.37
2018-01-13T01:05:10.704Z,29.50
2018-01-13T01:07:38.333Z,36.40
2018-01-13T01:10:05.925Z,39.47
2018-01-13T01:12:35.056Z,43.17
2018-01-13T01:15:02.647Z,31.77
2018-01-13T01:17:30.280Z,37.03
2018-01-13T01:19:57.925Z,39.60
2018-01-13T01:22:25.505Z,41.30
2018-01-13T01:24:53.123Z,49.33
2018-01-13T01:27:20.716Z,30.67
2018-01-13T01:29:49.104Z,37.17
2018-01-13T01:32:17.460Z,41.77
2018-01-13T01:34:45.826Z,39.80
2018-01-13T01:37:13.454Z,38.47
2018-01-13T01:39:41.048Z,37.97
2018-01-13T01:42:08.669Z,44.00
2018-01-13T01:44:36.259Z,37.80
2018-01-13T01:47:03.882Z,49.77
2018-01-13T01:49:31.484Z,45.33
2018-01-13T01:51:59.119Z,37.17
2018-01-13T01:54:26.748Z,45.30
2018-01-13T01:56:54.352Z,43.50
2018-01-13T01:59:21.977Z,47.17
2018-01-13T02:01:49.583Z,40.07
2018-01-13T02:04:17.191Z,38.77
2018-01-13T02:06:44.788Z,37.70
2018-01-13T02:09:12.412Z,42.90
2018-01-13T02:11:40.021Z,42.73
2018-01-13T02:14:07.649Z,35.53
2018-01-13T02:16:35.243Z,48.17
2018-01-13T02:19:02.864Z,42.33
2018-01-13T02:21:30.452Z,41.33
2018-01-13T02:23:58.108Z,56.80
2018-01-13T02:26:25.706Z,43.80
2018-01-13T02:28:53.325Z,35.33
2018-01-13T02:31:20.923Z,47.07
2018-01-13T02:33:48.549Z,46.23
2018-01-13T02:36:16.144Z,46.23
2018-01-13T02:38:43.769Z,43.50
2018-01-13T02:41:11.357Z,45.40
2018-01-13T02:43:39.005Z,50.87
2018-01-13T02:46:06.629Z,44.50
2018-01-13T02:48:34.228Z,46.20
2018-01-13T02:51:01.852Z,46.40
2018-01-13T02:53:29.448Z,57.83
2018-01-13T02:55:57.041Z,52.07
2018-01-13T02:58:25.439Z,45.57
2018-01-13T03:00:53.796Z,50.70
2018-01-13T03:03:21.427Z,48.40
2018-01-13T03:05:49.016Z,59.50
2018-01-13T03:08:16.641Z,42.10
2018-01-13T03:10:44.239Z,59.53
2018-01-13T03:13:11.860Z,53.27
2018-01-13T03:15:39.448Z,91.77
2018-01-13T03:18:07.065Z,44.57
2018-01-13T03:20:34.665Z,53.90
2018-01-13T03:23:02.298Z,54.23
2018-01-13T03:25:29.893Z,52.13
2018-01-13T03:27:57.530Z,63.67
2018-01-13T03:30:25.132Z,50.30
2018-01-13T03:32:53.525Z,51.20
2018-01-13T03:35:21.892Z,49.37
2018-01-13T03:37:50.280Z,59.67
2018-01-13T03:40:18.635Z,54.60
2018-01-13T03:42:47.759Z,61.00
2018-01-13T03:45:15.353Z,58.27
2018-01-13T03:47:42.974Z,67.33
2018-01-13T03:50:11.332Z,56.27
2018-01-13T03:52:38.952Z,54.23
2018-01-13T03:55:06.588Z,38.83
2018-01-13T03:57:34.212Z,51.90
2018-01-13T04:00:01.828Z,44.03
2018-01-13T04:02:29.447Z,43.47
2018-01-13T04:04:57.820Z,54.97
2018-01-13T04:07:26.216Z,58.13
2018-01-13T04:09:54.586Z,62.33
2018-01-13T04:12:22.982Z,53.80
2018-01-13T04:14:51.064Z,59.80
2018-01-13T04:17:18.661Z,46.47
2018-01-13T04:19:46.340Z,64.87
2018-01-13T04:22:13.938Z,46.33
2018-01-13T04:24:41.564Z,45.57
2018-01-13T04:27:09.160Z,29.80
2018-01-13T04:29:36.784Z,47.20
2018-01-13T04:32:05.904Z,40.40
2018-01-13T04:34:34.266Z,43.50
2018-01-13T04:37:02.656Z,51.03
2018-01-13T04:39:31.016Z,48.23
2018-01-13T04:41:58.649Z,59.67
2018-01-13T04:44:26.247Z,52.87
2018-01-13T04:46:54.612Z,42.47
2018-01-13T04:49:22.342Z,57.10
2018-01-13T04:51:49.928Z,49.03
2018-01-13T04:54:17.524Z,46.77
2018-01-13T04:56:45.912Z,46.67
2018-01-13T04:59:13.508Z,61.13
2018-01-13T05:01:41.132Z,54.77
2018-01-13T05:04:08.732Z,57.50
2018-01-13T05:06:36.328Z,55.97
2018-01-13T05:09:04.732Z,47.47
2018-01-13T05:11:32.334Z,40.30
2018-01-13T05:13:59.948Z,61.27
2018-01-13T05:16:27.544Z,50.93
2018-01-13T05:18:55.172Z,51.23
2018-01-13T05:21:23.532Z,46.73
2018-01-13T05:23:51.923Z,64.03
2018-01-13T05:26:20.275Z,46.00
2018-01-13T05:28:47.891Z,56.53
2018-01-13T05:31:15.591Z,41.43
2018-01-13T05:33:43.843Z,44.07
2018-01-13T05:36:11.490Z,61.97
2018-01-13T05:38:39.096Z,46.50
2018-01-13T05:41:06.711Z,58.03
2018-01-13T05:43:34.321Z,42.73
2018-01-13T05:46:02.734Z,54.13
2018-01-13T05:48:30.324Z,40.63
2018-01-13T05:50:57.953Z,50.50
2018-01-13T05:53:25.552Z,57.83
2018-01-13T05:55:53.152Z,51.00
2018-01-13T05:58:21.548Z,51.43
2018-01-13T06:00:49.914Z,45.80
2018-01-13T06:03:18.273Z,59.63
2018-01-13T06:05:45.900Z,60.40
2018-01-13T06:08:13.506Z,57.67
2018-01-13T06:10:42.611Z,53.27
2018-01-13T06:13:10.996Z,66.17
2018-01-13T06:15:39.363Z,51.57
2018-01-13T06:18:07.759Z,74.97
2018-01-13T06:20:36.124Z,59.67
2018-01-13T06:23:04.516Z,63.87
2018-01-13T06:25:32.117Z,46.33
2018-01-13T06:27:59.745Z,68.40
2018-01-13T06:30:27.361Z,60.40
2018-01-13T06:32:54.968Z,61.30
2018-01-13T06:35:22.588Z,60.23
2018-01-13T06:37:50.181Z,66.00
2018-01-13T06:40:18.564Z,65.27
2018-01-13T06:42:46.255Z,65.63
2018-01-13T06:45:13.880Z,63.00
2018-01-13T06:47:42.256Z,78.57
2018-01-13T06:50:10.640Z,74.00
2018-01-13T06:52:38.241Z,66.67
2018-01-13T06:55:05.880Z,67.87
2018-01-13T06:57:33.472Z,77.07
2018-01-13T07:00:01.081Z,76.73
2018-01-13T07:02:29.464Z,69.07
2018-01-13T07:04:57.067Z,80.50
2018-01-13T07:07:24.688Z,76.80
2018-01-13T07:09:52.283Z,68.53
2018-01-13T07:12:19.904Z,68.90
2018-01-13T07:14:48.272Z,49.87
2018-01-13T07:17:16.676Z,78.73
2018-01-13T07:19:44.269Z,67.53
2018-01-13T07:22:11.892Z,64.53
2018-01-13T07:24:39.487Z,48.63
2018-01-13T07:27:07.105Z,72.60
2018-01-13T07:29:34.719Z,70.37
2018-01-13T07:32:02.468Z,75.80
2018-01-13T07:34:30.059Z,63.17
2018-01-13T07:36:57.682Z,62.50
2018-01-13T07:39:25.273Z,84.33
2018-01-13T07:41:54.408Z,80.87
2018-01-13T07:44:22.028Z,53.27
2018-01-13T07:46:51.162Z,60.80
2018-01-13T07:49:18.760Z,77.67
2018-01-13T07:51:46.385Z,72.50
2018-01-13T07:54:13.983Z,84.30
2018-01-13T07:56:41.579Z,79.60
2018-01-13T07:59:09.960Z,73.93
2018-01-13T08:01:37.558Z,55.30
2018-01-13T08:04:05.192Z,69.87
2018-01-13T08:06:33.573Z,71.03
2018-01-13T08:09:01.989Z,75.90
2018-01-13T08:11:29.577Z,68.03
2018-01-13T08:13:57.226Z,69.47
2018-01-13T08:16:24.825Z,68.70
2018-01-13T08:18:52.457Z,78.77
2018-01-13T08:21:20.055Z,68.73
2018-01-13T08:23:48.447Z,60.80
2018-01-13T08:26:16.807Z,62.30
2018-01-13T08:28:45.231Z,73.17
2018-01-13T08:31:12.829Z,56.73
2018-01-13T08:33:40.448Z,63.73
2018-01-13T08:36:08.035Z,70.70
2018-01-13T08:38:35.662Z,54.77
2018-01-13T08:41:03.256Z,84.70
2018-01-13T08:43:30.912Z,63.30
2018-01-13T08:45:58.505Z,80.03
2018-01-13T08:48:27.642Z,75.30
2018-01-13T08:50:55.236Z,80.47
2018-01-13T08:53:22.886Z,66.50
2018-01-13T08:55:50.480Z,80.30
2018-01-13T08:58:18.113Z,67.67
2018-01-13T09:00:45.730Z,68.87
2018-01-13T09:03:13.374Z,73.40
2018-01-13T09:05:41.768Z,65.77
2018-01-13T09:08:10.140Z,73.77
2018-01-13T09:10:38.533Z,76.17
2018-01-13T09:13:06.130Z,75.60
2018-01-13T09:15:33.768Z,69.07
2018-01-13T09:18:01.361Z,67.60
2018-01-13T09:20:28.992Z,59.57
2018-01-13T09:22:56.583Z,72.40
2018-01-13T09:25:24.208Z,73.20
2018-01-13T09:27:51.806Z,77.47
2018-01-13T09:30:19.436Z,62.13
2018-01-13T09:32:47.033Z,70.43
2018-01-13T09:35:14.661Z,70.63
2018-01-13T09:37:42.256Z,70.57
2018-01-13T09:40:10.645Z,70.33
2018-01-13T09:42:38.361Z,73.67
2018-01-13T09:45:05.913Z,77.60
2018-01-13T09:47:33.546Z,63.27
2018-01-13T09:50:01.937Z,66.13
2018-01-13T09:52:30.296Z,65.87
2018-01-13T09:54:58.661Z,47.03
2018-01-13T09:57:26.295Z,66.07
2018-01-13T09:59:53.892Z,76.27
2018-01-13T10:02:22.268Z,36.70
2018-01-13T10:04:49.901Z,72.63
2018-01-13T10:07:17.510Z,63.97
2018-01-13T10:09:45.896Z,60.97
2018-01-13T10:12:13.496Z,75.53
2018-01-13T10:14:41.136Z,55.30
2018-01-13T10:17:08.723Z,68.20
2018-01-13T10:19:36.361Z,56.43
2018-01-13T10:22:04.047Z,84.17
2018-01-13T10:24:31.685Z,74.87
2018-01-13T10:26:59.280Z,78.00
2018-01-13T10:29:26.911Z,82.00
2018-01-13T10:31:54.684Z,62.47
2018-01-13T10:34:23.192Z,62.20
2018-01-13T10:36:50.796Z,67.20
2018-01-13T10:39:18.413Z,81.57
2018-01-13T10:41:46.772Z,81.10
2018-01-13T10:44:14.400Z,78.07
2018-01-13T10:46:42.034Z,57.70
2018-01-13T10:49:10.393Z,72.27
2018-01-13T10:51:38.030Z,55.17
2018-01-13T10:54:05.625Z,91.10
2018-01-13T10:56:33.258Z,75.80
2018-01-13T10:59:00.856Z,79.60
2018-01-13T11:01:29.221Z,71.03
2018-01-13T11:03:56.851Z,63.47
2018-01-13T11:06:24.461Z,60.40
2018-01-13T11:08:53.049Z,73.77
2018-01-13T11:11:21.961Z,88.43
2018-01-13T11:13:49.739Z,64.70
2018-01-13T11:16:17.344Z,70.70
2018-01-13T11:18:45.024Z,80.50
2018-01-13T11:21:13.388Z,68.77
2018-01-13T11:23:41.788Z,67.80
2018-01-13T11:26:10.148Z,74.10
2018-01-13T11:28:37.772Z,66.10
2018-01-13T11:31:05.364Z,63.63
2018-01-13T11:33:33.756Z,79.40
2018-01-13T11:36:02.113Z,42.60
2018-01-13T11:38:29.844Z,61.67
2018-01-13T11:40:57.440Z,67.57
2018-01-13T11:43:25.044Z,61.20
2018-01-13T11:45:52.682Z,61.60
2018-01-13T11:48:21.063Z,54.70
2018-01-13T11:50:49.456Z,76.30
2018-01-13T11:53:17.052Z,70.13
2018-01-13T11:55:44.712Z,55.20
2018-01-13T11:58:12.321Z,68.00
2018-01-13T12:00:40.709Z,58.77
2018-01-13T12:03:09.071Z,82.20
2018-01-13T12:05:36.709Z,68.80
2018-01-13T12:08:04.316Z,60.63
2018-01-13T12:10:31.932Z,71.17
2018-01-13T12:12:59.535Z,50.87
2018-01-13T12:15:27.158Z,60.77
2018-01-13T12:17:54.760Z,66.40
2018-01-13T12:20:22.380Z,68.70
2018-01-13T12:22:49.988Z,62.23
2018-01-13T12:25:17.621Z,45.70
2018-01-13T12:27:45.980Z,64.77
2018-01-13T12:30:13.610Z,59.80
2018-01-13T12:32:41.207Z,49.57
2018-01-13T12:35:08.833Z,71.50
2018-01-13T12:37:36.424Z,59.33
2018-01-13T12:40:04.812Z,62.27
2018-01-13T12:42:32.412Z,38.10
2018-01-13T12:45:00.051Z,63.77
2018-01-13T12:47:28.410Z,55.23
2018-01-13T12:49:57.578Z,61.73
2018-01-13T12:52:25.169Z,45.50
2018-01-13T12:54:52.795Z,51.80
2018-01-13T12:57:20.392Z,55.33
2018-01-13T12:59:48.022Z,58.57
2018-01-13T13:02:15.623Z,37.00
2018-01-13T13:04:43.983Z,52.60
2018-01-13T13:07:13.125Z,52.30
2018-01-13T13:09:40.716Z,59.63
2018-01-13T13:12:08.341Z,38.67
2018-01-13T13:14:35.932Z,45.10
2018-01-13T13:17:03.566Z,23.00
2018-01-13T13:19:31.256Z,30.37
2018-01-13T13:21:58.891Z,50.50
2018-01-13T13:24:26.484Z,35.70
2018-01-13T13:26:54.119Z,54.13
2018-01-13T13:29:21.709Z,48.73
2018-01-13T13:31:49.342Z,38.47
2018-01-13T13:34:16.928Z,45.33
2018-01-13T13:36:44.516Z,50.13
2018-01-13T13:39:12.143Z,50.30
2018-01-13T13:41:39.734Z,36.40
2018-01-13T13:44:07.509Z,44.90
2018-01-13T13:46:35.880Z,46.63
2018-01-13T13:49:03.514Z,45.83
2018-01-13T13:51:31.114Z,48.00
2018-01-13T13:53:59.472Z,47.73
2018-01-13T13:56:27.091Z,44.30
2018-01-13T13:58:54.725Z,46.70
2018-01-13T14:01:28.711Z,39.07
2018-01-13T14:03:50.709Z,37.37
2018-01-13T14:06:18.333Z,36.93
2018-01-13T14:08:45.934Z,33.90
2018-01-13T14:11:13.557Z,41.17
2018-01-13T14:13:41.149Z,36.90
2018-01-13T14:16:08.798Z,44.30
2018-01-13T14:18:36.394Z,35.93
2018-01-13T14:21:03.992Z,33.90
2018-01-13T14:23:31.624Z,36.37
2018-01-13T14:25:59.220Z,46.97
2018-01-13T14:28:26.840Z,33.17
2018-01-13T14:30:55.196Z,35.77
2018-01-13T14:33:22.793Z,29.57
2018-01-13T14:35:50.412Z,36.37
2018-01-13T14:38:18.003Z,36.90
2018-01-13T14:40:45.624Z,33.10
2018-01-13T14:43:13.220Z,31.77
2018-01-13T14:45:40.836Z,34.47
2018-01-13T14:48:08.423Z,32.90
2018-01-13T14:50:36.071Z,32.70
2018-01-13T14:53:03.961Z,34.87
2018-01-13T14:55:31.576Z,31.40
2018-01-13T14:57:59.188Z,33.00
2018-01-13T15:00:26.813Z,41.03
2018-01-13T15:02:54.412Z,31.60
2018-01-13T15:05:22.036Z,38.60
2018-01-13T15:07:49.682Z,32.77
2018-01-13T15:10:17.301Z,32.30
2018-01-13T15:12:46.396Z,32.57
2018-01-13T15:15:14.768Z,28.03
2018-01-13T15:17:43.198Z,30.77
2018-01-13T15:20:10.881Z,27.70
2018-01-13T15:22:38.485Z,33.67
2018-01-13T15:25:06.147Z,23.83
2018-01-13T15:27:34.525Z,22.67
2018-01-13T15:30:02.253Z,27.67
2018-01-13T15:32:29.852Z,21.57
2018-01-13T15:34:57.485Z,24.17
2018-01-13T15:37:25.076Z,28.80
2018-01-13T15:39:53.605Z,27.40
2018-01-13T15:42:21.200Z,27.23
2018-01-13T15:44:49.596Z,28.87
2018-01-13T15:47:17.184Z,28.67
2018-01-13T15:49:44.806Z,30.13
2018-01-13T15:52:12.406Z,25.40
2018-01-13T15:54:40.036Z,29.00
2018-01-13T15:57:07.755Z,23.67
2018-01-13T15:59:35.385Z,24.40
2018-01-13T16:02:02.997Z,32.23
2018-01-13T16:04:30.862Z,31.33
2018-01-13T16:06:58.463Z,31.40
2018-01-13T16:09:26.853Z,28.50
2018-01-13T16:11:54.490Z,26.30
2018-01-13T16:14:22.137Z,24.93
2018-01-13T16:16:49.727Z,31.23
2018-01-13T16:19:18.113Z,27.80
2018-01-13T16:21:45.708Z,28.53
2018-01-13T16:24:13.328Z,20.90
2018-01-13T16:26:40.934Z,27.53
2018-01-13T16:29:08.616Z,24.60
2018-01-13T16:31:36.239Z,21.67
2018-01-13T16:34:03.869Z,18.93
2018-01-13T16:36:31.466Z,26.67
2018-01-13T16:38:59.076Z,24.87
2018-01-13T16:41:26.981Z,19.87
2018-01-13T16:43:54.708Z,18.90
2018-01-13T16:46:22.384Z,23.00
2018-01-13T16:48:50.802Z,23.43
2018-01-13T16:51:18.576Z,19.93
2018-01-13T16:53:46.191Z,18.17
2018-01-13T16:56:14.576Z,22.23
2018-01-13T16:58:42.181Z,18.27
2018-01-13T17:01:10.224Z,18.20
2018-01-13T17:03:38.121Z,27.53
2018-01-13T17:06:05.995Z,22.10
2018-01-13T17:08:33.854Z,20.10
2018-01-13T17:11:01.720Z,20.90
2018-01-13T17:13:29.584Z,23.80
2018-01-13T17:15:57.463Z,18.20
2018-01-13T17:18:25.328Z,22.33
2018-01-13T17:20:53.186Z,20.83
2018-01-13T17:23:21.064Z,16.40
2018-01-13T17:25:49.746Z,22.67
2018-01-13T17:28:17.611Z,27.77
2018-01-13T17:30:45.588Z,15.17
2018-01-13T17:33:13.449Z,18.70
2018-01-13T17:35:41.317Z,17.17
2018-01-13T17:38:09.185Z,16.63
2018-01-13T17:40:37.113Z,18.33
2018-01-13T17:43:05.014Z,14.00
2018-01-13T17:45:32.862Z,22.33
2018-01-13T17:48:00.784Z,22.00
2018-01-13T17:50:29.435Z,23.23
2018-01-13T17:52:57.308Z,17.07
2018-01-13T17:55:25.165Z,15.53
2018-01-13T17:57:53.036Z,17.10
2018-01-13T18:00:20.898Z,13.73
2018-01-13T18:02:48.770Z,28.87
2018-01-13T18:05:16.633Z,23.13
2018-01-13T18:07:44.600Z,24.00
2018-01-13T18:10:12.468Z,13.60
2018-01-13T18:12:40.338Z,22.83
2018-01-13T18:15:08.213Z,16.07
2018-01-13T18:17:36.078Z,23.80
2018-01-13T18:20:05.469Z,22.93
2018-01-13T18:22:33.364Z,20.40
2018-01-13T18:25:01.202Z,28.03
2018-01-13T18:27:29.067Z,22.20
2018-01-13T18:29:56.941Z,18.33
2018-01-13T18:32:24.806Z,22.07
2018-01-13T18:34:52.666Z,28.17
2018-01-13T18:37:20.542Z,22.07
2018-01-13T18:39:48.407Z,25.80
2018-01-13T18:42:16.278Z,28.10
2018-01-13T18:44:44.142Z,20.60
2018-01-13T18:47:12.007Z,24.07
2018-01-13T18:49:39.877Z,18.73
2018-01-13T18:52:07.735Z,20.00
2018-01-13T18:54:35.613Z,25.50
2018-01-13T18:57:04.223Z,18.23
2018-01-13T18:59:32.884Z,16.00
2018-01-13T19:02:01.986Z,24.50
2018-01-13T19:04:29.628Z,22.47
2018-01-13T19:06:57.249Z,22.60
2018-01-13T19:09:24.848Z,26.30
2018-01-13T19:11:52.484Z,25.20
2018-01-13T19:14:20.071Z,22.67
2018-01-13T19:16:47.664Z,26.03
2018-01-13T19:19:16.066Z,23.03
2018-01-13T19:21:43.672Z,23.60
2018-01-13T19:24:11.295Z,20.77
2018-01-13T19:26:39.142Z,19.70
2018-01-13T19:29:07.794Z,21.33
2018-01-13T19:31:35.417Z,22.30
2018-01-13T19:34:03.060Z,21.60
2018-01-13T19:36:30.653Z,20.33
2018-01-13T19:38:58.256Z,25.10
2018-01-13T19:41:25.981Z,19.67
2018-01-13T19:43:53.593Z,24.03
2018-01-13T19:46:21.990Z,18.40
2018-01-13T19:48:49.586Z,15.70
2018-01-13T19:51:17.346Z,14.93
2018-01-13T19:53:44.977Z,20.73
2018-01-13T19:56:12.579Z,17.00
2018-01-13T19:58:40.336Z,20.50
2018-01-13T20:01:08.001Z,17.03
2018-01-13T20:03:35.872Z,21.60
2018-01-13T20:06:03.837Z,18.83
2018-01-13T20:08:31.610Z,15.00
2018-01-13T20:10:59.478Z,15.33
2018-01-13T20:13:27.105Z,12.17
2018-01-13T20:15:54.698Z,21.77
2018-01-13T20:18:22.284Z,17.53
2018-01-13T20:20:49.906Z,18.67
2018-01-13T20:23:17.569Z,17.07
2018-01-13T20:25:45.157Z,17.20
2018-01-13T20:28:12.797Z,15.83
2018-01-13T20:30:40.396Z,17.40
2018-01-13T20:33:08.817Z,15.47
2018-01-13T20:35:36.411Z,18.80
2018-01-13T20:38:03.996Z,16.93
2018-01-13T20:40:32.472Z,17.13
2018-01-13T20:43:00.832Z,18.13
2018-01-13T20:45:28.464Z,21.63
2018-01-13T20:47:56.061Z,14.70
2018-01-13T20:50:23.690Z,13.10
2018-01-13T20:52:51.282Z,16.73
2018-01-13T20:55:20.423Z,15.97
2018-01-13T20:57:48.297Z,15.07
2018-01-13T21:00:15.921Z,13.80
2018-01-13T21:02:44.277Z,14.40
2018-01-13T21:05:13.410Z,16.87
2018-01-13T21:07:41.004Z,12.83
2018-01-13T21:10:08.621Z,18.20
2018-01-13T21:12:36.976Z,13.60
2018-01-13T21:15:06.100Z,17.27
2018-01-13T21:17:34.473Z,12.63
2018-01-13T21:20:02.867Z,13.10
2018-01-13T21:22:30.467Z,14.30
2018-01-13T21:24:58.112Z,13.17
2018-01-13T21:27:25.705Z,14.07
2018-01-13T21:29:53.637Z,12.67
2018-01-13T21:32:21.530Z,9.30
2018-01-13T21:34:49.398Z,12.13
2018-01-13T21:37:17.023Z,14.30
2018-01-13T21:39:44.618Z,14.10
2018-01-13T21:42:12.250Z,14.50
2018-01-13T21:44:39.853Z,19.23
2018-01-13T21:47:07.469Z,14.13
2018-01-13T21:49:35.092Z,13.53
2018-01-13T21:52:03.472Z,10.07
2018-01-13T21:54:31.850Z,11.40
2018-01-13T21:57:00.237Z,15.17
2018-01-13T21:59:27.852Z,14.30
2018-01-13T22:01:55.466Z,9.87
2018-01-13T22:04:24.004Z,14.43
2018-01-13T22:06:51.625Z,15.77
2018-01-13T22:09:19.214Z,10.20
2018-01-13T22:11:47.027Z,12.27
2018-01-13T22:14:15.407Z,12.23
2018-01-13T22:16:43.801Z,14.20
2018-01-13T22:19:11.398Z,13.20
2018-01-13T22:21:39.019Z,10.10
2018-01-13T22:24:06.624Z,13.93
2018-01-13T22:26:34.214Z,11.30
2018-01-13T22:29:01.841Z,10.90
2018-01-13T22:31:29.429Z,7.90
2018-01-13T22:33:57.056Z,15.30
2018-01-13T22:36:24.652Z,10.43
2018-01-13T22:38:52.290Z,12.27
2018-01-13T22:41:19.908Z,15.67
2018-01-13T22:43:47.509Z,7.57
2018-01-13T22:46:15.133Z,11.53
2018-01-13T22:48:42.730Z,11.17
2018-01-13T22:51:10.353Z,10.50
2018-01-13T22:53:37.955Z,17.50
2018-01-13T22:56:05.596Z,10.33
2018-01-13T22:58:33.197Z,8.47
2018-01-13T23:01:00.788Z,14.20
2018-01-13T23:03:28.418Z,8.90
2018-01-13T23:05:57.527Z,13.17
2018-01-13T23:08:25.945Z,16.87
2018-01-13T23:10:53.540Z,13.60
2018-01-13T23:13:21.129Z,12.43
2018-01-13T23:15:49.513Z,9.70
2018-01-13T23:18:17.874Z,8.60
2018-01-13T23:20:46.266Z,5.73
2018-01-13T23:23:14.631Z,13.57
2018-01-13T23:25:42.222Z,11.70
2018-01-13T23:28:10.603Z,11.27
2018-01-13T23:30:38.204Z,9.17
2018-01-13T23:33:05.837Z,16.37
2018-01-13T23:35:33.433Z,7.57
2018-01-13T23:38:01.036Z,13.90
2018-01-13T23:40:29.417Z,14.80
2018-01-13T23:42:57.777Z,14.40
2018-01-13T23:45:26.185Z,14.50
2018-01-13T23:47:53.783Z,16.70
2018-01-13T23:50:21.380Z,19.70
2018-01-13T23:52:49.047Z,13.77
2018-01-13T23:55:17.416Z,18.30
2018-01-13T23:57:45.063Z,11.93
